Time;durP1;ratioP1;P1;durP2;ratioP2;P2;SDS_P1;SDS_P2;PMS_P1;PMS_P2;Temp;Humidity;BMP_temperature;BMP_pressure;BME280_temperature;BME280_humidity;BME280_pressure;Samples;Min_cycle;Max_cycle;Signal;HPM_P1;HPM_P2
2021/05/01 00:01:29;;;;;;;19.42;7.87;;;;;;;19.93;70.19;101235.41;144992;585;6002;-83
2021/05/01 00:04:02;;;;;;;17.48;8.25;;;;;;;20.06;69.52;101236.28;144992;564;6002;-84
2021/05/01 00:06:36;;;;;;;21.45;8.55;;;;;;;20.18;69.41;101235.41;144992;604;6002;-80
2021/05/01 00:09:12;;;;;;;16.75;8.52;;;;;;;20.27;69.53;101231.00;144992;629;6002;-80
2021/05/01 00:11:43;;;;;;;20.27;8.00;;;;;;;20.35;69.47;101240.66;144992;584;6002;-84
2021/05/01 00:14:11;;;;;;;25.50;8.40;;;;;;;20.33;69.40;101242.41;144992;591;6002;-78
2021/05/01 00:16:40;;;;;;;22.52;9.20;;;;;;;20.35;69.01;101240.66;144992;622;6002;-89
2021/05/01 00:19:13;;;;;;;20.20;8.80;;;;;;;20.33;69.22;101243.28;144992;576;6002;-81
2021/05/01 00:21:42;;;;;;;19.50;8.65;;;;;;;20.30;69.05;101246.81;144992;592;6002;-85
2021/05/01 00:24:12;;;;;;;26.10;8.60;;;;;;;20.21;69.52;101249.44;144992;575;6002;-81
2021/05/01 00:26:45;;;;;;;22.65;8.35;;;;;;;20.26;69.31;101249.44;144992;565;6002;-85
2021/05/01 00:29:12;;;;;;;22.05;8.50;;;;;;;20.29;69.17;101254.72;144992;663;6002;-80
2021/05/01 00:31:39;;;;;;;25.25;8.90;;;;;;;20.33;68.78;101260.84;144992;608;6002;-79
2021/05/01 00:34:08;;;;;;;20.00;8.23;;;;;;;20.28;68.79;101264.41;144992;581;6002;-82
2021/05/01 00:36:35;;;;;;;19.35;7.95;;;;;;;20.29;68.64;101260.84;144992;603;6002;-80
2021/05/01 00:39:01;;;;;;;23.05;7.90;;;;;;;20.25;68.73;101259.12;144992;622;6002;-79
2021/05/01 00:41:28;;;;;;;20.95;7.70;;;;;;;20.19;68.37;101255.62;144992;590;6002;-79
2021/05/01 00:43:55;;;;;;;26.33;8.27;;;;;;;20.06;68.66;101250.34;144992;575;6002;-80
2021/05/01 00:46:22;;;;;;;20.88;7.55;;;;;;;19.98;68.89;101249.50;144992;584;6002;-81
2021/05/01 00:48:51;;;;;;;23.92;9.35;;;;;;;19.79;69.28;101255.62;144992;697;6002;-80
2021/05/01 00:51:17;;;;;;;21.10;7.53;;;;;;;19.77;69.57;101263.53;144992;564;6002;-81
2021/05/01 00:53:44;;;;;;;24.00;7.22;;;;;;;19.76;69.09;101261.78;144992;590;6002;-80
2021/05/01 00:56:11;;;;;;;18.70;7.55;;;;;;;19.80;69.25;101253.00;144992;563;6002;-80
2021/05/01 00:58:38;;;;;;;15.60;6.50;;;;;;;19.87;68.90;101251.25;144992;572;6002;-81
2021/05/01 01:03:49;;;;;;;26.87;8.55;;;;;;;19.77;69.40;101238.94;144992;598;6004;-80
2021/05/01 01:06:16;;;;;;;18.65;8.05;;;;;;;19.75;69.89;101236.28;144992;572;6004;-80
2021/05/01 01:08:44;;;;;;;24.63;8.95;;;;;;;19.75;70.67;101238.91;144992;713;6004;-80
2021/05/01 01:11:12;;;;;;;19.27;8.77;;;;;;;19.69;69.64;101238.91;144992;584;6004;-81
2021/05/01 01:13:39;;;;;;;19.65;9.18;;;;;;;19.60;70.84;101247.69;144992;601;6004;-80
2021/05/01 01:16:06;;;;;;;21.17;10.15;;;;;;;19.66;69.46;101238.91;144992;569;6004;-79
2021/05/01 01:18:34;;;;;;;17.70;9.02;;;;;;;19.65;69.75;101239.81;144992;593;6004;-80
2021/05/01 01:21:03;;;;;;;21.73;8.43;;;;;;;19.63;69.92;101241.53;144992;614;6004;-80
2021/05/01 01:23:30;;;;;;;22.90;8.15;;;;;;;19.60;69.80;101244.16;144992;567;6004;-80
2021/05/01 01:25:57;;;;;;;19.80;8.43;;;;;;;19.54;71.13;101251.19;144992;572;6004;-80
2021/05/01 01:28:25;;;;;;;20.77;9.38;;;;;;;19.54;69.93;101260.84;144992;617;6004;-81
2021/05/01 01:30:51;;;;;;;15.77;7.82;;;;;;;19.61;69.33;101259.97;144992;603;6004;-78
2021/05/01 01:33:18;;;;;;;19.95;8.65;;;;;;;19.63;69.27;101260.87;144992;592;6004;-80
2021/05/01 01:35:44;;;;;;;19.70;8.10;;;;;;;19.66;69.79;101246.81;144992;599;6004;-78
2021/05/01 01:38:11;;;;;;;18.48;8.40;;;;;;;19.67;69.07;101244.19;144992;607;6004;-79
2021/05/01 01:40:39;;;;;;;15.20;8.00;;;;;;;19.68;69.03;101231.91;144992;575;6004;-80
2021/05/01 01:43:05;;;;;;;22.92;8.20;;;;;;;19.68;69.43;101222.25;144992;612;6004;-81
2021/05/01 01:45:32;;;;;;;24.23;8.25;;;;;;;19.68;69.01;101213.47;144992;609;6004;-80
2021/05/01 01:47:59;;;;;;;18.83;8.70;;;;;;;19.68;69.41;101206.44;144992;588;6004;-81
2021/05/01 01:50:27;;;;;;;22.55;8.60;;;;;;;19.67;68.96;101212.56;144992;588;6004;-80
2021/05/01 01:52:54;;;;;;;20.60;8.38;;;;;;;19.67;68.81;101219.59;144992;639;6004;-80
2021/05/01 01:55:22;;;;;;;21.48;9.27;;;;;;;19.64;69.48;101222.22;144992;634;6004;-78
2021/05/01 01:57:50;;;;;;;19.90;8.02;;;;;;;19.62;69.30;101219.59;144992;588;6004;-80
2021/05/01 02:00:28;;;;;;;19.60;8.27;;;;;;;19.61;68.99;101223.09;144992;571;6004;-79
2021/05/01 02:02:55;;;;;;;26.12;9.75;;;;;;;19.60;69.32;101225.72;144992;571;6004;-81
2021/05/01 02:05:23;;;;;;;19.30;9.27;;;;;;;19.61;69.14;101230.13;144992;587;6004;-81
2021/05/01 02:07:49;;;;;;;24.58;11.15;;;;;;;19.55;69.67;101245.06;144992;610;6004;-81
2021/05/01 02:10:17;;;;;;;22.60;11.20;;;;;;;19.46;69.48;101255.56;144992;569;6004;-81
2021/05/01 02:12:44;;;;;;;21.75;10.73;;;;;;;19.37;70.38;101263.44;144992;575;6004;-81
2021/05/01 02:15:16;;;;;;;26.70;12.85;;;;;;;19.29;69.73;101249.41;144992;578;6004;-79
2021/05/01 02:17:46;;;;;;;33.55;12.63;;;;;;;19.30;70.14;101259.06;144992;615;6004;-80
2021/05/01 02:20:16;;;;;;;26.80;13.00;;;;;;;19.26;70.14;101259.91;144992;675;6014;-79
2021/05/01 02:22:42;;;;;;;27.58;13.60;;;;;;;19.22;69.86;101266.94;144992;578;6004;-81
2021/05/01 02:25:10;;;;;;;29.87;12.98;;;;;;;19.21;69.59;101273.94;144992;586;6004;-80
2021/05/01 02:27:37;;;;;;;25.00;11.02;;;;;;;19.23;69.97;101270.44;144992;589;6004;-82
2021/05/01 02:30:17;;;;;;;21.50;11.38;;;;;;;19.22;69.75;101280.09;144992;575;6004;-80
2021/05/01 02:32:44;;;;;;;23.10;11.88;;;;;;;19.25;69.91;101272.22;144992;606;6004;-81
2021/05/01 02:35:19;;;;;;;26.25;9.93;;;;;;;19.30;69.76;101274.84;144992;633;6004;-81
2021/05/01 02:37:47;;;;;;;28.35;9.68;;;;;;;19.34;69.81;101281.88;144997;572;6004;-80
2021/05/01 02:40:15;;;;;;;20.33;8.80;;;;;;;19.34;70.49;101272.25;144992;571;6002;-80
2021/05/01 02:42:44;;;;;;;20.58;9.15;;;;;;;19.44;69.92;101288.03;144992;582;6002;-80
2021/05/01 02:45:13;;;;;;;17.60;9.20;;;;;;;19.46;69.89;101297.69;144992;565;6002;-80
2021/05/01 02:47:41;;;;;;;24.37;9.70;;;;;;;19.50;71.26;101296.84;144992;576;6002;-82
2021/05/01 02:50:11;;;;;;;21.75;10.27;;;;;;;19.42;70.37;101303.81;144992;569;6002;-80
2021/05/01 02:52:38;;;;;;;23.80;8.65;;;;;;;19.43;69.89;101299.44;144992;620;6002;-82
2021/05/01 02:55:06;;;;;;;20.50;10.00;;;;;;;19.43;70.03;101316.13;144992;563;6002;-81
2021/05/01 02:57:32;;;;;;;23.20;9.07;;;;;;;19.43;69.84;101318.75;144992;586;6002;-80
2021/05/01 03:00:02;;;;;;;21.23;9.20;;;;;;;19.45;70.28;101308.22;144992;577;6002;-79
2021/05/01 03:02:31;;;;;;;19.05;8.48;;;;;;;19.43;69.71;101307.34;144992;650;6002;-80
2021/05/01 03:04:58;;;;;;;21.92;8.65;;;;;;;19.40;69.77;101316.09;144992;610;6002;-79
2021/05/01 03:07:25;;;;;;;20.00;8.20;;;;;;;19.38;69.74;101325.75;144991;642;6002;-81
2021/05/01 03:09:52;;;;;;;19.90;7.75;;;;;;;19.33;70.41;101316.97;144992;599;6002;-80
2021/05/01 03:12:18;;;;;;;18.65;7.90;;;;;;;19.30;70.39;101328.37;144992;599;6002;-80
2021/05/01 03:14:49;;;;;;;19.23;8.40;;;;;;;19.34;70.23;101321.34;144992;607;6002;-81
2021/05/01 03:17:17;;;;;;;20.77;8.30;;;;;;;19.41;70.79;101317.88;144992;607;6002;-80
2021/05/01 03:19:43;;;;;;;21.67;8.75;;;;;;;19.42;70.72;101326.66;144992;594;6002;-80
2021/05/01 03:22:10;;;;;;;17.50;8.07;;;;;;;19.43;70.50;101329.28;144992;593;6002;-82
2021/05/01 03:24:37;;;;;;;20.35;8.25;;;;;;;19.42;70.50;101314.34;144992;569;6002;-79
2021/05/01 03:27:04;;;;;;;16.23;7.68;;;;;;;19.35;70.97;101315.22;144992;590;6002;-81
2021/05/01 03:29:32;;;;;;;19.98;8.27;;;;;;;19.32;70.54;101317.84;144992;579;6002;-80
2021/05/01 03:32:01;;;;;;;17.30;8.63;;;;;;;19.31;70.48;101327.50;144992;564;6002;-79
2021/05/01 03:34:27;;;;;;;25.08;9.00;;;;;;;19.21;71.22;101325.69;144992;581;6002;-81
2021/05/01 03:36:54;;;;;;;17.92;8.35;;;;;;;19.14;71.67;101334.47;144991;601;6002;-81
2021/05/01 03:39:20;;;;;;;15.80;8.57;;;;;;;19.12;70.78;101333.56;144992;579;6002;-81
2021/05/01 03:41:48;;;;;;;15.20;7.75;;;;;;;19.08;71.06;101335.28;144992;576;6002;-80
2021/05/01 03:44:15;;;;;;;22.35;8.13;;;;;;;19.06;71.28;101342.31;144992;593;6002;-80
2021/05/01 03:46:41;;;;;;;22.65;8.88;;;;;;;19.01;71.49;101347.56;144992;569;6002;-80
2021/05/01 03:49:08;;;;;;;22.98;8.70;;;;;;;18.99;71.01;101349.31;144992;585;6002;-80
2021/05/01 03:51:35;;;;;;;18.87;8.85;;;;;;;18.98;71.22;101349.28;144992;613;6002;-80
2021/05/01 03:54:02;;;;;;;18.60;8.55;;;;;;;18.95;71.50;101352.78;144992;661;6002;-81
2021/05/01 03:56:31;;;;;;;20.80;8.30;;;;;;;18.94;73.27;101347.50;144992;569;6002;-80
2021/05/01 03:59:01;;;;;;;20.95;9.07;;;;;;;18.91;72.77;101350.97;144992;565;6002;-80
2021/05/01 04:01:28;;;;;;;23.75;8.18;;;;;;;18.90;71.90;101359.78;144992;618;6002;-81
2021/05/01 04:03:56;;;;;;;18.48;8.50;;;;;;;18.94;72.01;101351.00;144992;684;6002;-80
2021/05/01 04:06:22;;;;;;;22.60;9.20;;;;;;;18.94;72.56;101356.25;144992;572;6002;-80
2021/05/01 04:08:49;;;;;;;19.12;8.98;;;;;;;18.96;71.86;101354.53;144992;618;6002;-81
2021/05/01 04:11:16;;;;;;;16.35;8.50;;;;;;;18.98;72.76;101358.06;144992;710;6002;-80
2021/05/01 04:13:48;;;;;;;20.35;8.65;;;;;;;18.90;74.23;101359.78;144992;571;6002;-81
2021/05/01 04:16:18;;;;;;;18.92;9.07;;;;;;;18.92;72.69;101365.03;144992;612;6002;-80
2021/05/01 04:18:46;;;;;;;20.62;9.82;;;;;;;18.92;72.81;101362.41;144992;623;6002;-81
2021/05/01 04:21:12;;;;;;;17.83;8.20;;;;;;;19.01;72.63;101360.72;144992;576;6002;-79
2021/05/01 04:23:39;;;;;;;20.35;9.13;;;;;;;19.08;72.34;101374.75;144992;573;6002;-80
2021/05/01 04:26:05;;;;;;;17.75;8.48;;;;;;;19.17;72.48;101377.44;144992;594;6002;-80
2021/05/01 04:28:32;;;;;;;20.33;8.68;;;;;;;19.16;73.88;101378.31;144992;554;6002;-83
2021/05/01 04:30:59;;;;;;;23.10;9.15;;;;;;;19.25;71.90;101379.22;144992;579;6002;-81
2021/05/01 04:33:28;;;;;;;22.37;9.13;;;;;;;19.27;72.20;101382.75;144992;591;6002;-80
2021/05/01 04:35:58;;;;;;;21.00;10.15;;;;;;;19.29;71.90;101376.59;144992;706;6002;-81
2021/05/01 04:38:25;;;;;;;19.20;9.00;;;;;;;19.23;71.46;101383.59;144992;564;6002;-82
2021/05/01 04:40:52;;;;;;;23.45;8.02;;;;;;;19.22;71.93;101393.25;144992;564;6002;-79
2021/05/01 04:43:24;;;;;;;19.80;8.50;;;;;;;19.14;71.73;101395.84;144992;674;6002;-81
2021/05/01 04:45:52;;;;;;;16.08;8.52;;;;;;;19.07;73.65;101403.69;144992;599;6002;-80
2021/05/01 04:48:19;;;;;;;15.45;8.40;;;;;;;19.03;72.77;101397.56;144992;582;6002;-80
2021/05/01 04:50:50;;;;;;;20.27;8.50;;;;;;;18.94;72.81;101402.75;144991;677;6002;-81
2021/05/01 04:53:19;;;;;;;20.77;8.20;;;;;;;19.00;72.32;101402.78;144992;675;6002;-81
2021/05/01 04:55:48;;;;;;;18.23;8.57;;;;;;;19.14;72.22;101410.78;144992;626;6002;-80
2021/05/01 04:58:17;;;;;;;18.17;8.27;;;;;;;19.21;72.57;101408.16;144992;583;6002;-80
2021/05/01 05:00:45;;;;;;;17.98;8.05;;;;;;;19.29;72.09;101404.69;144992;626;6002;-82
2021/05/01 05:03:11;;;;;;;20.88;8.25;;;;;;;19.32;71.72;101408.22;144992;574;6011;-80
2021/05/01 05:05:38;;;;;;;21.02;8.10;;;;;;;19.30;72.05;101403.84;144992;617;6002;-82
2021/05/01 05:08:05;;;;;;;16.52;8.25;;;;;;;19.36;72.02;101406.50;144992;659;6002;-80
2021/05/01 05:10:32;;;;;;;21.58;8.65;;;;;;;19.25;72.85;101401.19;144992;577;6002;-80
2021/05/01 05:12:59;;;;;;;16.92;8.27;;;;;;;19.24;71.63;101399.41;144992;602;6002;-81
2021/05/01 05:15:26;;;;;;;16.10;8.25;;;;;;;19.25;72.06;101395.00;144992;597;6002;-80
2021/05/01 05:17:53;;;;;;;17.17;8.27;;;;;;;19.24;71.68;101388.00;144992;574;6003;-80
2021/05/01 05:20:20;;;;;;;22.70;8.45;;;;;;;19.23;71.59;101383.59;144992;579;6002;-81
2021/05/01 05:22:46;;;;;;;19.20;8.07;;;;;;;19.21;71.68;101378.34;144992;574;6002;-81
2021/05/01 05:25:13;;;;;;;23.62;9.00;;;;;;;19.15;71.98;101375.66;144992;575;6003;-80
2021/05/01 05:27:39;;;;;;;20.27;9.60;;;;;;;19.14;71.67;101380.06;144992;569;6002;-81
2021/05/01 05:30:07;;;;;;;19.08;8.70;;;;;;;19.18;71.87;101381.84;144992;595;6002;-81
2021/05/01 05:32:34;;;;;;;22.95;9.52;;;;;;;19.24;71.57;101374.84;144992;584;6002;-81
2021/05/01 05:35:01;;;;;;;23.05;9.75;;;;;;;19.29;71.89;101367.84;144992;600;6002;-80
2021/05/01 05:37:27;;;;;;;25.20;10.85;;;;;;;19.26;71.72;101359.94;144992;585;6002;-78
2021/05/01 05:39:54;;;;;;;29.83;10.73;;;;;;;19.28;71.98;101352.91;144992;589;6002;-80
2021/05/01 05:42:22;;;;;;;30.27;12.27;;;;;;;19.22;71.84;101364.31;144992;643;6002;-81
2021/05/01 05:44:50;;;;;;;25.45;12.00;;;;;;;19.21;71.64;101360.78;144992;602;6002;-79
2021/05/01 05:47:18;;;;;;;26.27;11.68;;;;;;;19.20;72.47;101356.41;144992;590;6002;-80
2021/05/01 05:49:46;;;;;;;22.58;10.93;;;;;;;19.20;71.82;101353.78;144992;591;6002;-81
2021/05/01 05:52:13;;;;;;;25.37;11.35;;;;;;;19.29;71.73;101360.81;144993;626;6002;-86
2021/05/01 05:54:40;;;;;;;25.33;12.52;;;;;;;19.33;72.13;101354.69;144993;619;6002;-80
2021/05/01 05:57:12;;;;;;;28.27;12.32;;;;;;;19.42;71.69;101352.97;144993;565;6002;-81
2021/05/01 05:59:39;;;;;;;28.17;11.95;;;;;;;19.50;71.76;101360.03;144993;589;6002;-80
2021/05/01 06:02:07;;;;;;;33.03;12.55;;;;;;;19.56;71.59;101346.84;144992;595;6002;-81
2021/05/01 06:04:57;;;;;;;36.38;14.02;;;;;;;19.53;71.16;101345.97;144993;580;6002;-80
2021/05/01 06:07:34;;;;;;;30.00;14.77;;;;;;;19.49;71.55;101326.66;144993;589;6000;-82
2021/05/01 06:10:05;;;;;;;25.65;12.73;;;;;;;19.52;71.55;101337.22;144993;601;6002;-80
2021/05/01 06:12:36;;;;;;;33.03;14.15;;;;;;;19.54;71.38;101338.09;144993;573;6002;-80
2021/05/01 06:15:07;;;;;;;25.08;13.38;;;;;;;19.61;71.16;101346.00;144993;563;6002;-80
2021/05/01 06:17:34;;;;;;;27.17;13.45;;;;;;;19.63;70.94;101352.16;144993;659;6002;-80
2021/05/01 06:20:23;;;;;;;22.30;11.65;;;;;;;19.50;72.09;101362.66;144993;626;6002;-86
2021/05/01 06:22:50;;;;;;;29.95;13.80;;;;;;;19.60;71.82;101383.75;144992;570;6002;-80
2021/05/01 06:25:16;;;;;;;28.15;13.88;;;;;;;19.49;71.70;101360.91;144992;612;6002;-80
2021/05/01 06:27:44;;;;;;;29.17;12.73;;;;;;;19.60;71.45;101378.47;144992;659;6002;-80
2021/05/01 06:30:12;;;;;;;23.30;10.85;;;;;;;19.60;71.16;101386.37;144992;610;6002;-79
2021/05/01 06:32:39;;;;;;;23.27;12.15;;;;;;;19.61;70.79;101402.19;144992;656;6002;-81
2021/05/01 06:35:06;;;;;;;20.83;11.88;;;;;;;19.65;70.95;101425.03;144992;639;6002;-79
2021/05/01 06:37:34;;;;;;;20.80;11.10;;;;;;;19.57;72.06;101417.09;144993;588;6002;-80
2021/05/01 06:40:06;;;;;;;26.95;11.48;;;;;;;19.56;71.52;101419.72;144993;583;6002;-82
2021/05/01 06:42:43;;;;;;;25.40;11.95;;;;;;;19.56;70.97;101402.16;144993;579;6002;-79
2021/05/01 06:45:16;;;;;;;29.63;11.60;;;;;;;19.34;73.04;101418.75;144993;572;6002;-80
2021/05/01 06:47:53;;;;;;;24.52;11.43;;;;;;;19.40;71.73;101435.44;144993;597;6002;-79
2021/05/01 06:50:26;;;;;;;29.80;13.23;;;;;;;19.46;71.89;101428.47;144993;580;6002;-81
2021/05/01 06:52:54;;;;;;;25.70;12.43;;;;;;;19.55;71.96;101466.25;144993;608;6002;-81
2021/05/01 06:55:23;;;;;;;23.70;11.85;;;;;;;19.66;71.52;101446.97;144993;606;6002;-80
2021/05/01 06:57:52;;;;;;;22.33;9.88;;;;;;;19.63;71.98;101462.75;144993;574;6002;-80
2021/05/01 07:00:24;;;;;;;19.48;10.23;;;;;;;19.65;71.39;101490.87;144993;607;6002;-88
2021/05/01 07:03:04;;;;;;;22.77;11.10;;;;;;;19.64;72.08;101473.28;144993;571;6002;-80
2021/05/01 07:05:31;;;;;;;23.23;12.02;;;;;;;19.60;72.50;101463.63;144993;596;6002;-79
2021/05/01 07:07:58;;;;;;;27.02;11.95;;;;;;;19.46;72.44;101492.53;144993;569;6002;-81
2021/05/01 07:10:25;;;;;;;26.80;11.85;;;;;;;19.55;72.52;101475.88;144993;597;6002;-80
2021/05/01 07:12:52;;;;;;;28.48;13.20;;;;;;;19.54;72.40;101438.16;144993;569;6002;-81
2021/05/01 07:15:20;;;;;;;33.97;13.88;;;;;;;19.47;73.42;101470.59;144993;585;6002;-81
2021/05/01 07:17:51;;;;;;;26.62;13.10;;;;;;;19.51;72.56;101437.25;144993;603;6002;-80
2021/05/01 07:20:17;;;;;;;24.17;11.80;;;;;;;19.53;72.28;101419.72;144993;608;6002;-80
2021/05/01 07:22:44;;;;;;;24.90;11.65;;;;;;;19.60;72.60;101423.25;144993;601;6002;-81
2021/05/01 07:25:12;;;;;;;23.55;10.82;;;;;;;19.37;76.15;101403.84;144993;664;6002;-80
2021/05/01 07:28:04;;;;;;;26.70;11.18;;;;;;;19.52;73.84;101375.84;144992;579;6002;-81
2021/05/01 07:30:37;;;;;;;22.77;11.02;;;;;;;19.60;72.92;101413.59;144994;590;5002;-81
2021/05/01 07:33:25;;;;;;;36.70;17.73;;;;;;;19.57;74.98;101446.06;144994;610;5002;-80
2021/05/01 07:35:55;;;;;;;26.60;10.25;;;;;;;19.68;72.78;101464.56;144993;600;6002;-80
2021/05/01 07:38:24;;;;;;;26.45;11.30;;;;;;;19.53;75.71;101480.28;144994;587;5002;-81
2021/05/01 07:40:58;;;;;;;31.98;14.45;;;;;;;19.56;73.62;101520.66;144994;572;5002;-80
2021/05/01 07:43:31;;;;;;;26.70;11.65;;;;;;;19.54;74.10;101532.94;144994;623;5002;-81
2021/05/01 07:46:06;;;;;;;21.42;10.45;;;;;;;19.56;74.41;101549.63;144994;569;5002;-81
2021/05/01 07:48:34;;;;;;;26.30;10.77;;;;;;;19.63;74.19;101518.06;144994;655;5002;-81
2021/05/01 07:51:01;;;;;;;21.12;9.68;;;;;;;19.66;73.14;101562.84;144994;580;5002;-80
2021/05/01 07:53:28;;;;;;;28.10;10.30;;;;;;;19.74;73.74;101553.22;144994;565;5002;-80
2021/05/01 07:55:55;;;;;;;24.50;9.85;;;;;;;19.85;72.91;101538.41;144994;565;5002;-80
2021/05/01 07:58:21;;;;;;;17.23;9.82;;;;;;;19.79;75.85;101546.28;144994;585;5002;-80
2021/05/01 08:00:48;;;;;;;22.55;11.18;;;;;;;19.84;74.13;101528.75;144994;583;5002;-80
2021/05/01 08:03:15;;;;;;;20.98;10.23;;;;;;;19.99;73.31;101495.41;144994;564;5002;-79
2021/05/01 08:05:41;;;;;;;19.37;9.90;;;;;;;20.02;75.36;101511.25;144994;595;5002;-79
2021/05/01 08:08:08;;;;;;;21.95;10.93;;;;;;;20.08;73.85;101506.00;144994;601;5002;-80
2021/05/01 08:10:34;;;;;;;22.00;11.32;;;;;;;20.20;74.08;101478.78;144994;710;5002;-81
2021/05/01 08:13:01;;;;;;;24.58;10.10;;;;;;;20.27;73.93;101465.62;144994;636;5002;-80
2021/05/01 08:15:30;;;;;;;19.55;9.90;;;;;;;20.38;73.07;101464.75;144994;582;5002;-80
2021/05/01 08:17:57;;;;;;;24.20;10.77;;;;;;;20.53;72.86;101480.56;144994;590;5002;-80
2021/05/01 08:20:23;;;;;;;22.58;10.38;;;;;;;20.62;71.52;101450.72;144994;582;5002;-81
2021/05/01 08:22:50;;;;;;;25.95;11.52;;;;;;;20.78;71.76;101439.28;144994;563;5002;-80
2021/05/01 08:25:16;;;;;;;26.67;12.65;;;;;;;20.86;71.62;101448.97;144994;593;5002;-80
2021/05/01 08:27:43;;;;;;;29.00;11.60;;;;;;;20.92;71.56;101473.59;144993;570;5002;-80
2021/05/01 08:30:15;;;;;;;34.88;16.15;;;;;;;20.99;70.79;101446.28;144994;715;5002;-81
2021/05/01 08:32:42;;;;;;;30.23;15.40;;;;;;;21.07;71.14;101427.78;144994;569;5002;-80
2021/05/01 08:35:10;;;;;;;26.10;11.77;;;;;;;20.97;70.53;101440.13;144994;596;5002;-81
2021/05/01 08:37:36;;;;;;;25.52;11.18;;;;;;;21.05;71.09;101455.97;144994;564;5002;-80
2021/05/01 08:40:05;;;;;;;39.03;12.73;;;;;;;21.06;70.72;101455.09;144994;614;5002;-80
2021/05/01 08:42:32;;;;;;;23.60;10.52;;;;;;;20.77;71.42;101473.59;144994;643;5009;-82
2021/05/01 08:45:06;;;;;;;22.42;9.27;;;;;;;20.87;71.49;101467.44;144994;563;5002;-80
2021/05/01 08:47:34;;;;;;;24.98;8.25;;;;;;;20.90;71.38;101485.88;144994;710;5002;-81
2021/05/01 08:50:06;;;;;;;22.85;8.35;;;;;;;20.36;72.53;101484.97;144994;626;5002;-81
2021/05/01 08:52:43;;;;;;;17.25;8.70;;;;;;;20.33;72.99;101490.22;144994;635;5002;-78
2021/05/01 08:55:17;;;;;;;19.83;8.25;;;;;;;20.42;72.67;101500.78;144994;624;5002;-80
2021/05/01 08:57:47;;;;;;;19.20;8.05;;;;;;;20.48;72.59;101504.31;144994;680;5002;-82
2021/05/01 09:00:14;;;;;;;19.70;8.10;;;;;;;20.52;72.34;101485.84;144994;766;5002;-80
2021/05/01 09:02:41;;;;;;;19.73;7.45;;;;;;;20.57;71.96;101482.34;144994;722;5002;-80
2021/05/01 09:05:10;;;;;;;21.52;8.07;;;;;;;20.46;72.01;101460.37;144994;768;5002;-81
2021/05/01 09:07:43;;;;;;;16.60;8.02;;;;;;;20.44;71.84;101462.09;144994;616;5002;-80
2021/05/01 09:10:11;;;;;;;20.30;8.20;;;;;;;20.43;71.69;101449.81;144994;589;5002;-80
2021/05/01 09:12:48;;;;;;;17.05;8.40;;;;;;;20.24;72.35;101436.59;144994;646;5002;-82
2021/05/01 09:15:28;;;;;;;18.10;7.87;;;;;;;20.38;72.04;101441.91;144994;746;5002;-81
2021/05/01 09:18:00;;;;;;;16.27;8.05;;;;;;;20.42;71.85;101426.97;144994;603;5002;-81
2021/05/01 09:20:27;;;;;;;22.02;7.60;;;;;;;20.50;71.81;101445.44;144994;608;5002;-80
2021/05/01 09:23:08;;;;;;;23.42;7.80;;;;;;;20.55;71.70;101436.63;144994;564;5003;-81
2021/05/01 09:25:54;;;;;;;18.73;7.82;;;;;;;20.56;71.74;101445.44;144994;569;5002;-81
2021/05/01 09:28:40;;;;;;;28.27;7.20;;;;;;;20.64;71.81;101436.66;144994;604;5002;-81
2021/05/01 09:31:12;;;;;;;21.73;7.55;;;;;;;20.70;71.15;101437.56;144994;641;5003;-83
2021/05/01 09:33:40;;;;;;;26.62;8.68;;;;;;;20.92;71.05;101425.19;144994;655;5002;-81
2021/05/01 09:36:22;;;;;;;16.00;7.65;;;;;;;21.07;69.61;101430.44;144994;681;5002;-81
2021/05/01 09:39:11;;;;;;;22.67;7.45;;;;;;;21.12;70.30;101422.50;144993;638;5002;-82
2021/05/01 09:41:45;;;;;;;19.45;8.00;;;;;;;21.08;69.95;101421.66;144994;607;5004;-81
2021/05/01 09:44:17;;;;;;;17.27;8.25;;;;;;;21.00;70.54;101423.44;144994;660;5004;-80
2021/05/01 09:46:49;;;;;;;19.67;8.00;;;;;;;21.17;69.61;101426.00;144994;587;5004;-81
2021/05/01 09:49:28;;;;;;;23.75;8.65;;;;;;;21.27;69.53;101418.94;144994;565;5004;-81
2021/05/01 09:52:03;;;;;;;25.45;9.43;;;;;;;21.27;69.40;101422.47;144994;636;5004;-80
2021/05/01 09:54:34;;;;;;;23.05;8.30;;;;;;;21.44;69.63;101424.16;144994;665;5004;-80
2021/05/01 09:57:15;;;;;;;21.12;8.30;;;;;;;21.37;69.47;101424.19;144994;680;5004;-80
2021/05/01 09:59:52;;;;;;;21.45;8.18;;;;;;;21.64;68.98;101432.03;144994;648;5004;-81
2021/05/01 10:02:34;;;;;;;19.50;7.82;;;;;;;21.67;68.98;101421.47;144994;577;5004;-80
2021/05/01 10:05:14;;;;;;;18.70;8.80;;;;;;;21.72;68.82;101430.25;144994;571;5004;-82
2021/05/01 10:07:51;;;;;;;21.62;8.85;;;;;;;21.75;68.83;101438.16;144994;570;5004;-80
2021/05/01 10:10:19;;;;;;;163.57;115.15;;;;;;;21.73;68.10;101432.88;144994;670;5004;-80
2021/05/01 10:12:46;;;;;;;26.25;10.95;;;;;;;21.81;68.72;101421.38;144994;635;5004;-80
2021/05/01 10:15:30;;;;;;;21.70;9.80;;;;;;;21.92;67.71;101419.53;144994;572;5004;-81
2021/05/01 10:18:12;;;;;;;23.50;9.32;;;;;;;22.02;67.61;101415.97;144994;610;5002;-80
2021/05/01 10:20:46;;;;;;;207.10;135.50;;;;;;;22.16;68.21;101407.94;144994;593;5002;-81
2021/05/01 10:23:14;;;;;;;196.20;155.65;;;;;;;22.36;68.07;101404.28;144994;633;5002;-81
2021/05/01 10:25:43;;;;;;;168.90;135.40;;;;;;;22.50;68.30;101404.19;144994;584;5002;-81
2021/05/01 10:28:14;;;;;;;21.15;10.07;;;;;;;22.49;67.52;101403.28;144994;565;5002;-80
2021/05/01 10:30:45;;;;;;;21.85;8.57;;;;;;;22.46;67.34;101393.63;144994;670;5002;-82
2021/05/01 10:33:41;;;;;;;20.98;8.50;;;;;;;22.60;66.90;101392.59;144994;581;5002;-81
2021/05/01 10:36:34;;;;;;;25.37;10.65;;;;;;;22.58;67.04;101384.69;144994;610;5004;-81
2021/05/01 10:39:06;;;;;;;20.62;9.90;;;;;;;22.81;65.95;101394.16;144994;641;5002;-79
2021/05/01 10:41:37;;;;;;;22.90;10.10;;;;;;;22.80;66.19;101392.41;144994;588;5002;-81
2021/05/01 10:44:07;;;;;;;16.27;8.07;;;;;;;22.76;65.85;101390.69;144994;713;5002;-81
2021/05/01 10:46:39;;;;;;;23.30;9.05;;;;;;;22.69;66.34;101386.37;144994;654;5002;-80
2021/05/01 10:49:11;;;;;;;19.42;8.75;;;;;;;22.66;66.48;101375.81;144994;569;5002;-80
2021/05/01 10:51:40;;;;;;;23.20;8.93;;;;;;;22.62;65.95;101372.28;144994;618;5002;-80
2021/05/01 10:54:25;;;;;;;19.95;7.90;;;;;;;22.55;66.26;101378.56;144994;596;5002;-81
2021/05/01 10:56:55;;;;;;;;;;;;;;;22.54;65.90;101375.03;144998;912;5002;-80
2021/05/01 10:59:27;;;;;;;30.58;18.45;;;;;;;22.37;66.74;101371.66;144998;600;5003;-81
2021/05/01 11:01:56;;;;;;;18.48;8.55;;;;;;;22.50;66.09;101377.72;144994;600;5002;-80
2021/05/01 11:04:26;;;;;;;17.20;8.52;;;;;;;22.64;66.23;101365.25;144994;587;5002;-80
2021/05/01 11:07:21;;;;;;;19.87;7.85;;;;;;;22.73;66.49;101357.22;144994;581;5002;-80
2021/05/01 11:09:51;;;;;;;21.17;7.95;;;;;;;22.87;65.45;101357.03;144994;615;5004;-82
2021/05/01 11:12:21;;;;;;;21.05;8.45;;;;;;;22.99;63.15;101350.75;144994;653;5004;-84
2021/05/01 11:15:09;;;;;;;27.87;7.95;;;;;;;23.15;63.04;101357.62;144994;567;5004;-80
2021/05/01 11:17:52;;;;;;;17.83;8.32;;;;;;;23.34;62.42;101352.97;144994;569;5004;-81
2021/05/01 11:20:22;;;;;;;14.02;7.57;;;;;;;23.40;64.55;101362.63;144994;576;5004;-81
2021/05/01 11:22:53;;;;;;;17.87;8.05;;;;;;;23.41;64.01;101352.91;144994;601;5004;-80
2021/05/01 11:25:22;;;;;;;20.50;7.57;;;;;;;23.52;64.35;101356.28;144994;633;5004;-81
2021/05/01 11:27:54;;;;;;;15.73;7.43;;;;;;;23.52;63.75;101349.19;144994;573;5004;-82
2021/05/01 11:30:23;;;;;;;18.75;8.00;;;;;;;23.52;63.40;101346.53;144994;562;5004;-80
2021/05/01 11:32:51;;;;;;;21.50;7.97;;;;;;;23.46;63.84;101351.06;144993;624;5004;-80
2021/05/01 11:35:23;;;;;;;24.23;8.20;;;;;;;23.49;64.00;101343.94;144994;585;5002;-81
2021/05/01 11:38:24;;;;;;;21.55;7.07;;;;;;;23.43;63.30;101345.78;144994;569;5002;-80